sensor_id;sensor_type;location;lat;lon;timestamp;pressure;altitude;pressure_sealevel;temperature;humidity
67345;BME280;54230;52.402;6.276;2023-09-18T00:00:01;100760.0;;;20.5;77.7
67345;BME280;54230;52.402;6.276;2023-09-18T00:05:00;100740.0;;;20.6;77.9
67345;BME280;54230;52.402;6.276;2023-09-18T00:10:00;100720.0;;;20.6;78.0
67345;BME280;54230;52.402;6.276;2023-09-18T00:15:00;100720.0;;;20.6;77.6
67345;BME280;54230;52.402;6.276;2023-09-18T00:20:00;100700.0;;;20.6;77.8
67345;BME280;54230;52.402;6.276;2023-09-18T00:25:00;100680.0;;;20.6;78.0
67345;BME280;54230;52.402;6.276;2023-09-18T00:30:00;100680.0;;;20.6;77.5
67345;BME280;54230;52.402;6.276;2023-09-18T00:35:00;100670.0;;;20.6;77.8
67345;BME280;54230;52.402;6.276;2023-09-18T00:40:01;100670.0;;;20.6;78.3
67345;BME280;54230;52.402;6.276;2023-09-18T00:45:00;100650.0;;;20.6;77.8
67345;BME280;54230;52.402;6.276;2023-09-18T00:50:01;100630.0;;;20.6;77.8
67345;BME280;54230;52.402;6.276;2023-09-18T00:55:00;100620.0;;;20.7;77.8
67345;BME280;54230;52.402;6.276;2023-09-18T01:00:01;100620.0;;;20.7;77.2
67345;BME280;54230;52.402;6.276;2023-09-18T01:05:00;100620.0;;;20.7;76.9
67345;BME280;54230;52.402;6.276;2023-09-18T01:10:00;100620.0;;;20.7;77.0
67345;BME280;54230;52.402;6.276;2023-09-18T01:15:06;100600.0;;;20.7;77.2
67345;BME280;54230;52.402;6.276;2023-09-18T01:20:00;100600.0;;;20.7;77.6
67345;BME280;54230;52.402;6.276;2023-09-18T01:25:00;100590.0;;;20.9;77.4
67345;BME280;54230;52.402;6.276;2023-09-18T01:30:00;100580.0;;;20.9;77.4
67345;BME280;54230;52.402;6.276;2023-09-18T01:35:02;100570.0;;;20.9;77.5
67345;BME280;54230;52.402;6.276;2023-09-18T01:40:01;100560.0;;;20.9;77.5
67345;BME280;54230;52.402;6.276;2023-09-18T01:45:00;100550.0;;;20.9;77.5
67345;BME280;54230;52.402;6.276;2023-09-18T01:50:03;100540.0;;;21.0;77.5
67345;BME280;54230;52.402;6.276;2023-09-18T01:55:00;100520.0;;;21.0;77.2
67345;BME280;54230;52.402;6.276;2023-09-18T02:00:00;100520.0;;;21.0;77.2
67345;BME280;54230;52.402;6.276;2023-09-18T02:05:00;100510.0;;;21.0;77.3
67345;BME280;54230;52.402;6.276;2023-09-18T02:10:00;100500.0;;;21.0;77.9
67345;BME280;54230;52.402;6.276;2023-09-18T02:15:00;100490.0;;;21.1;77.9
67345;BME280;54230;52.402;6.276;2023-09-18T02:20:00;100490.0;;;21.1;77.6
67345;BME280;54230;52.402;6.276;2023-09-18T02:25:00;100480.0;;;21.1;77.5
67345;BME280;54230;52.402;6.276;2023-09-18T02:30:00;100480.0;;;21.1;77.4
67345;BME280;54230;52.402;6.276;2023-09-18T02:35:00;100480.0;;;21.1;77.5
67345;BME280;54230;52.402;6.276;2023-09-18T02:40:00;100470.0;;;21.1;77.7
67345;BME280;54230;52.402;6.276;2023-09-18T02:45:00;100470.0;;;21.2;77.5
67345;BME280;54230;52.402;6.276;2023-09-18T02:50:00;100460.0;;;21.1;77.8
67345;BME280;54230;52.402;6.276;2023-09-18T02:55:00;100450.0;;;21.2;77.9
67345;BME280;54230;52.402;6.276;2023-09-18T03:00:00;100430.0;;;21.2;77.9
67345;BME280;54230;52.402;6.276;2023-09-18T03:05:00;100420.0;;;21.3;77.6
67345;BME280;54230;52.402;6.276;2023-09-18T03:10:00;100400.0;;;21.3;77.2
67345;BME280;54230;52.402;6.276;2023-09-18T03:15:00;100390.0;;;21.3;77.2
67345;BME280;54230;52.402;6.276;2023-09-18T03:20:00;100380.0;;;21.3;77.1
67345;BME280;54230;52.402;6.276;2023-09-18T03:25:00;100360.0;;;21.4;77.0
67345;BME280;54230;52.402;6.276;2023-09-18T03:30:00;100340.0;;;21.4;76.5
67345;BME280;54230;52.402;6.276;2023-09-18T03:35:00;100310.0;;;21.4;76.2
67345;BME280;54230;52.402;6.276;2023-09-18T03:40:00;100290.0;;;21.4;76.2
67345;BME280;54230;52.402;6.276;2023-09-18T03:45:00;100280.0;;;21.4;76.2
67345;BME280;54230;52.402;6.276;2023-09-18T03:50:00;100280.0;;;21.4;76.1
67345;BME280;54230;52.402;6.276;2023-09-18T03:55:00;100270.0;;;21.4;76.0
67345;BME280;54230;52.402;6.276;2023-09-18T04:00:00;100270.0;;;21.4;76.0
67345;BME280;54230;52.402;6.276;2023-09-18T04:05:00;100270.0;;;21.4;76.9
67345;BME280;54230;52.402;6.276;2023-09-18T04:10:00;100260.0;;;21.4;76.8
67345;BME280;54230;52.402;6.276;2023-09-18T04:15:00;100260.0;;;21.5;76.2
67345;BME280;54230;52.402;6.276;2023-09-18T04:20:00;100260.0;;;21.7;75.2
67345;BME280;54230;52.402;6.276;2023-09-18T04:25:00;100250.0;;;21.7;74.8
67345;BME280;54230;52.402;6.276;2023-09-18T04:30:00;100260.0;;;21.8;74.6
67345;BME280;54230;52.402;6.276;2023-09-18T04:35:00;100260.0;;;21.7;74.8
67345;BME280;54230;52.402;6.276;2023-09-18T04:40:00;100260.0;;;21.8;74.9
67345;BME280;54230;52.402;6.276;2023-09-18T04:45:00;100260.0;;;21.8;75.1
67345;BME280;54230;52.402;6.276;2023-09-18T04:50:00;100260.0;;;21.7;75.4
67345;BME280;54230;52.402;6.276;2023-09-18T04:55:00;100240.0;;;21.7;75.9
67345;BME280;54230;52.402;6.276;2023-09-18T05:00:00;100230.0;;;21.7;75.8
67345;BME280;54230;52.402;6.276;2023-09-18T05:05:00;100210.0;;;21.8;75.2
67345;BME280;54230;52.402;6.276;2023-09-18T05:10:00;100210.0;;;21.7;75.3
67345;BME280;54230;52.402;6.276;2023-09-18T05:15:00;100190.0;;;21.8;75.0
67345;BME280;54230;52.402;6.276;2023-09-18T05:20:00;100200.0;;;21.8;74.8
67345;BME280;54230;52.402;6.276;2023-09-18T05:25:00;100200.0;;;21.6;75.8
67345;BME280;54230;52.402;6.276;2023-09-18T05:30:00;100220.0;;;21.6;75.9
67345;BME280;54230;52.402;6.276;2023-09-18T05:35:00;100240.0;;;21.5;76.6
67345;BME280;54230;52.402;6.276;2023-09-18T05:40:00;100220.0;;;21.5;76.9
67345;BME280;54230;52.402;6.276;2023-09-18T05:45:00;100230.0;;;21.5;77.2
67345;BME280;54230;52.402;6.276;2023-09-18T05:50:00;100250.0;;;21.5;77.4
67345;BME280;54230;52.402;6.276;2023-09-18T05:55:00;100260.0;;;21.6;77.5
67345;BME280;54230;52.402;6.276;2023-09-18T06:00:01;100250.0;;;21.6;77.4
67345;BME280;54230;52.402;6.276;2023-09-18T06:05:00;100260.0;;;21.7;77.9
67345;BME280;54230;52.402;6.276;2023-09-18T06:10:00;100270.0;;;21.5;79.4
67345;BME280;54230;52.402;6.276;2023-09-18T06:15:00;100220.0;;;21.1;81.0
67345;BME280;54230;52.402;6.276;2023-09-18T06:20:00;100230.0;;;20.8;83.6
67345;BME280;54230;52.402;6.276;2023-09-18T06:25:00;100240.0;;;20.8;84.5
67345;BME280;54230;52.402;6.276;2023-09-18T06:30:00;100250.0;;;21.0;84.8
67345;BME280;54230;52.402;6.276;2023-09-18T06:35:00;100270.0;;;21.1;84.6
67345;BME280;54230;52.402;6.276;2023-09-18T06:40:00;100290.0;;;21.1;84.8
67345;BME280;54230;52.402;6.276;2023-09-18T06:45:00;100280.0;;;21.1;85.1
67345;BME280;54230;52.402;6.276;2023-09-18T06:50:00;100290.0;;;21.3;85.1
67345;BME280;54230;52.402;6.276;2023-09-18T06:55:00;100290.0;;;21.5;85.3
67345;BME280;54230;52.402;6.276;2023-09-18T07:00:00;100290.0;;;21.5;85.4
67345;BME280;54230;52.402;6.276;2023-09-18T07:05:00;100280.0;;;21.5;85.6
67345;BME280;54230;52.402;6.276;2023-09-18T07:10:00;100290.0;;;21.5;85.3
67345;BME280;54230;52.402;6.276;2023-09-18T07:15:01;100280.0;;;21.5;85.5
67345;BME280;54230;52.402;6.276;2023-09-18T07:20:00;100270.0;;;21.5;85.6
67345;BME280;54230;52.402;6.276;2023-09-18T07:25:00;100280.0;;;21.6;85.7
67345;BME280;54230;52.402;6.276;2023-09-18T07:30:00;100270.0;;;21.6;85.9
67345;BME280;54230;52.402;6.276;2023-09-18T07:35:00;100290.0;;;21.6;86.3
67345;BME280;54230;52.402;6.276;2023-09-18T07:40:00;100280.0;;;21.7;86.4
67345;BME280;54230;52.402;6.276;2023-09-18T07:45:00;100280.0;;;21.9;86.3
67345;BME280;54230;52.402;6.276;2023-09-18T07:50:00;100270.0;;;21.9;86.4
67345;BME280;54230;52.402;6.276;2023-09-18T07:55:00;100280.0;;;22.1;86.7
67345;BME280;54230;52.402;6.276;2023-09-18T08:00:00;100270.0;;;22.3;86.4
67345;BME280;54230;52.402;6.276;2023-09-18T08:05:00;100270.0;;;22.5;86.2
67345;BME280;54230;52.402;6.276;2023-09-18T08:10:01;100290.0;;;22.6;85.7
67345;BME280;54230;52.402;6.276;2023-09-18T08:15:00;100280.0;;;22.7;85.1
67345;BME280;54230;52.402;6.276;2023-09-18T08:20:00;100300.0;;;22.7;84.7
67345;BME280;54230;52.402;6.276;2023-09-18T08:25:00;100300.0;;;22.7;84.3
67345;BME280;54230;52.402;6.276;2023-09-18T08:30:00;100310.0;;;22.8;83.7
67345;BME280;54230;52.402;6.276;2023-09-18T08:35:00;100300.0;;;22.9;83.6
67345;BME280;54230;52.402;6.276;2023-09-18T08:40:00;100320.0;;;22.9;83.1
67345;BME280;54230;52.402;6.276;2023-09-18T08:45:01;100320.0;;;22.9;82.4
67345;BME280;54230;52.402;6.276;2023-09-18T08:50:01;100320.0;;;22.9;81.9
67345;BME280;54230;52.402;6.276;2023-09-18T08:55:01;100310.0;;;22.9;81.4
67345;BME280;54230;52.402;6.276;2023-09-18T09:00:00;100300.0;;;22.9;81.1
67345;BME280;54230;52.402;6.276;2023-09-18T09:05:00;100320.0;;;23.1;80.3
67345;BME280;54230;52.402;6.276;2023-09-18T09:10:00;100320.0;;;23.1;79.4
67345;BME280;54230;52.402;6.276;2023-09-18T09:15:02;100330.0;;;23.1;79.1
67345;BME280;54230;52.402;6.276;2023-09-18T09:20:08;100320.0;;;23.2;79.0
67345;BME280;54230;52.402;6.276;2023-09-18T09:25:00;100340.0;;;23.3;78.2
67345;BME280;54230;52.402;6.276;2023-09-18T09:30:01;100340.0;;;23.4;76.8
67345;BME280;54230;52.402;6.276;2023-09-18T09:35:00;100350.0;;;23.3;75.3
67345;BME280;54230;52.402;6.276;2023-09-18T09:40:04;100350.0;;;23.2;74.9
67345;BME280;54230;52.402;6.276;2023-09-18T09:45:02;100360.0;;;23.4;74.8
67345;BME280;54230;52.402;6.276;2023-09-18T09:50:06;100360.0;;;23.4;73.5
67345;BME280;54230;52.402;6.276;2023-09-18T09:55:00;100350.0;;;23.5;73.3
67345;BME280;54230;52.402;6.276;2023-09-18T10:00:04;100370.0;;;23.4;72.8
67345;BME280;54230;52.402;6.276;2023-09-18T10:05:01;100370.0;;;23.4;72.7
67345;BME280;54230;52.402;6.276;2023-09-18T10:10:00;100370.0;;;23.2;72.5
67345;BME280;54230;52.402;6.276;2023-09-18T10:15:02;100370.0;;;23.5;73.0
67345;BME280;54230;52.402;6.276;2023-09-18T10:20:02;100360.0;;;23.9;72.3
67345;BME280;54230;52.402;6.276;2023-09-18T10:25:06;100370.0;;;24.0;70.8
67345;BME280;54230;52.402;6.276;2023-09-18T10:30:01;100370.0;;;24.1;70.3
67345;BME280;54230;52.402;6.276;2023-09-18T10:35:00;100390.0;;;24.4;70.0
67345;BME280;54230;52.402;6.276;2023-09-18T10:40:00;100390.0;;;24.7;68.7
67345;BME280;54230;52.402;6.276;2023-09-18T10:45:01;100400.0;;;24.9;66.3
67345;BME280;54230;52.402;6.276;2023-09-18T10:50:00;100400.0;;;24.7;65.9
67345;BME280;54230;52.402;6.276;2023-09-18T10:55:01;100410.0;;;24.7;65.9
67345;BME280;54230;52.402;6.276;2023-09-18T11:00:00;100400.0;;;24.8;65.7
67345;BME280;54230;52.402;6.276;2023-09-18T11:05:02;100390.0;;;24.9;64.3
67345;BME280;54230;52.402;6.276;2023-09-18T11:15:00;100380.0;;;25.2;62.2
67345;BME280;54230;52.402;6.276;2023-09-18T11:20:03;100380.0;;;25.3;61.7
67345;BME280;54230;52.402;6.276;2023-09-18T11:30:01;100380.0;;;25.3;61.2
67345;BME280;54230;52.402;6.276;2023-09-18T11:35:06;100380.0;;;25.8;60.8
67345;BME280;54230;52.402;6.276;2023-09-18T11:40:00;100370.0;;;26.0;59.5
67345;BME280;54230;52.402;6.276;2023-09-18T11:45:00;100360.0;;;25.3;59.4
67345;BME280;54230;52.402;6.276;2023-09-18T11:50:00;100370.0;;;25.0;60.5
67345;BME280;54230;52.402;6.276;2023-09-18T11:55:01;100370.0;;;25.1;61.0
67345;BME280;54230;52.402;6.276;2023-09-18T12:00:00;100380.0;;;25.2;61.2
67345;BME280;54230;52.402;6.276;2023-09-18T12:05:05;100390.0;;;25.3;61.3
67345;BME280;54230;52.402;6.276;2023-09-18T12:10:04;100360.0;;;25.2;60.6
67345;BME280;54230;52.402;6.276;2023-09-18T12:15:01;100390.0;;;25.3;60.2
67345;BME280;54230;52.402;6.276;2023-09-18T12:20:00;100370.0;;;25.4;59.8
67345;BME280;54230;52.402;6.276;2023-09-18T12:25:08;100360.0;;;25.8;58.3
67345;BME280;54230;52.402;6.276;2023-09-18T12:30:00;100370.0;;;26.0;57.7
67345;BME280;54230;52.402;6.276;2023-09-18T12:35:00;100370.0;;;25.9;57.1
67345;BME280;54230;52.402;6.276;2023-09-18T12:40:00;100370.0;;;25.8;57.5
67345;BME280;54230;52.402;6.276;2023-09-18T12:45:00;100370.0;;;26.0;57.4
67345;BME280;54230;52.402;6.276;2023-09-18T12:50:02;100370.0;;;26.2;56.4
67345;BME280;54230;52.402;6.276;2023-09-18T12:55:00;100370.0;;;26.0;55.2
67345;BME280;54230;52.402;6.276;2023-09-18T13:00:07;100360.0;;;25.8;55.7
67345;BME280;54230;52.402;6.276;2023-09-18T13:05:00;100360.0;;;25.4;56.5
67345;BME280;54230;52.402;6.276;2023-09-18T13:10:02;100350.0;;;25.4;56.2
67345;BME280;54230;52.402;6.276;2023-09-18T13:15:01;100340.0;;;25.6;55.7
67345;BME280;54230;52.402;6.276;2023-09-18T13:20:07;100330.0;;;25.7;55.5
67345;BME280;54230;52.402;6.276;2023-09-18T13:25:00;100320.0;;;25.6;54.9
67345;BME280;54230;52.402;6.276;2023-09-18T13:30:00;100320.0;;;25.5;54.7
67345;BME280;54230;52.402;6.276;2023-09-18T13:35:00;100310.0;;;25.6;54.2
67345;BME280;54230;52.402;6.276;2023-09-18T13:40:00;100310.0;;;25.4;54.0
67345;BME280;54230;52.402;6.276;2023-09-18T13:45:01;100310.0;;;25.5;54.2
67345;BME280;54230;52.402;6.276;2023-09-18T13:50:00;100310.0;;;25.6;53.5
67345;BME280;54230;52.402;6.276;2023-09-18T13:55:00;100310.0;;;25.8;54.2
67345;BME280;54230;52.402;6.276;2023-09-18T14:00:01;100300.0;;;25.8;53.6
67345;BME280;54230;52.402;6.276;2023-09-18T14:05:00;100290.0;;;25.8;53.7
67345;BME280;54230;52.402;6.276;2023-09-18T14:10:00;100280.0;;;26.1;53.4
67345;BME280;54230;52.402;6.276;2023-09-18T14:15:00;100280.0;;;26.2;52.2
67345;BME280;54230;52.402;6.276;2023-09-18T14:20:00;100270.0;;;26.7;51.9
67345;BME280;54230;52.402;6.276;2023-09-18T14:25:00;100260.0;;;26.8;50.4
67345;BME280;54230;52.402;6.276;2023-09-18T14:30:00;100250.0;;;27.1;49.9
67345;BME280;54230;52.402;6.276;2023-09-18T14:35:00;100260.0;;;27.2;49.1
67345;BME280;54230;52.402;6.276;2023-09-18T14:40:00;100250.0;;;27.5;49.1
67345;BME280;54230;52.402;6.276;2023-09-18T14:45:00;100240.0;;;27.5;47.8
67345;BME280;54230;52.402;6.276;2023-09-18T14:50:00;100230.0;;;27.3;48.0
67345;BME280;54230;52.402;6.276;2023-09-18T14:55:00;100240.0;;;27.5;47.8
67345;BME280;54230;52.402;6.276;2023-09-18T15:00:00;100230.0;;;27.4;47.8
67345;BME280;54230;52.402;6.276;2023-09-18T15:05:00;100220.0;;;27.2;47.7
67345;BME280;54230;52.402;6.276;2023-09-18T15:10:00;100230.0;;;27.1;47.9
67345;BME280;54230;52.402;6.276;2023-09-18T15:15:00;100230.0;;;26.7;48.0
67345;BME280;54230;52.402;6.276;2023-09-18T15:20:00;100240.0;;;26.3;49.4
67345;BME280;54230;52.402;6.276;2023-09-18T15:25:00;100230.0;;;26.3;50.0
67345;BME280;54230;52.402;6.276;2023-09-18T15:30:00;100230.0;;;26.3;49.5
67345;BME280;54230;52.402;6.276;2023-09-18T15:35:00;100230.0;;;26.2;49.5
67345;BME280;54230;52.402;6.276;2023-09-18T15:40:00;100230.0;;;26.0;49.1
67345;BME280;54230;52.402;6.276;2023-09-18T15:45:00;100230.0;;;26.0;49.1
67345;BME280;54230;52.402;6.276;2023-09-18T15:50:00;100220.0;;;25.9;49.1
67345;BME280;54230;52.402;6.276;2023-09-18T15:55:01;100200.0;;;25.8;49.1
67345;BME280;54230;52.402;6.276;2023-09-18T16:00:01;100190.0;;;25.5;49.5
67345;BME280;54230;52.402;6.276;2023-09-18T16:05:01;100210.0;;;25.4;50.0
67345;BME280;54230;52.402;6.276;2023-09-18T16:10:00;100280.0;;;25.3;53.2
67345;BME280;54230;52.402;6.276;2023-09-18T16:15:00;100280.0;;;22.3;62.7
67345;BME280;54230;52.402;6.276;2023-09-18T16:20:00;100300.0;;;21.1;68.3
67345;BME280;54230;52.402;6.276;2023-09-18T16:25:00;100320.0;;;20.8;70.2
67345;BME280;54230;52.402;6.276;2023-09-18T16:30:00;100320.0;;;20.5;71.7
67345;BME280;54230;52.402;6.276;2023-09-18T16:35:00;100310.0;;;20.3;72.1
67345;BME280;54230;52.402;6.276;2023-09-18T16:40:00;100300.0;;;20.2;72.9
67345;BME280;54230;52.402;6.276;2023-09-18T16:45:00;100310.0;;;19.9;73.7
67345;BME280;54230;52.402;6.276;2023-09-18T16:50:00;100310.0;;;19.8;74.1
67345;BME280;54230;52.402;6.276;2023-09-18T16:55:00;100280.0;;;19.7;74.3
67345;BME280;54230;52.402;6.276;2023-09-18T17:00:00;100270.0;;;19.8;74.0
67345;BME280;54230;52.402;6.276;2023-09-18T17:05:00;100270.0;;;20.0;73.9
67345;BME280;54230;52.402;6.276;2023-09-18T17:10:00;100270.0;;;20.0;73.3
67345;BME280;54230;52.402;6.276;2023-09-18T17:15:00;100280.0;;;19.9;73.0
67345;BME280;54230;52.402;6.276;2023-09-18T17:20:00;100280.0;;;19.9;72.8
67345;BME280;54230;52.402;6.276;2023-09-18T17:25:00;100270.0;;;20.0;72.8
67345;BME280;54230;52.402;6.276;2023-09-18T17:30:01;100280.0;;;19.9;73.1
67345;BME280;54230;52.402;6.276;2023-09-18T17:35:00;100270.0;;;19.8;73.3
67345;BME280;54230;52.402;6.276;2023-09-18T17:40:00;100270.0;;;19.8;73.4
67345;BME280;54230;52.402;6.276;2023-09-18T17:45:00;100270.0;;;19.7;73.6
67345;BME280;54230;52.402;6.276;2023-09-18T17:50:00;100270.0;;;19.7;74.0
67345;BME280;54230;52.402;6.276;2023-09-18T17:55:01;100270.0;;;19.7;74.0
67345;BME280;54230;52.402;6.276;2023-09-18T18:00:00;100270.0;;;19.6;74.4
67345;BME280;54230;52.402;6.276;2023-09-18T18:05:00;100260.0;;;19.4;74.9
67345;BME280;54230;52.402;6.276;2023-09-18T18:10:00;100270.0;;;19.3;75.4
67345;BME280;54230;52.402;6.276;2023-09-18T18:15:00;100270.0;;;19.4;75.5
67345;BME280;54230;52.402;6.276;2023-09-18T18:20:00;100270.0;;;19.3;75.8
67345;BME280;54230;52.402;6.276;2023-09-18T18:25:00;100260.0;;;19.6;75.9
67345;BME280;54230;52.402;6.276;2023-09-18T18:30:00;100260.0;;;19.8;74.8
67345;BME280;54230;52.402;6.276;2023-09-18T18:35:00;100260.0;;;20.1;73.9
67345;BME280;54230;52.402;6.276;2023-09-18T18:40:00;100270.0;;;20.2;73.1
67345;BME280;54230;52.402;6.276;2023-09-18T18:45:00;100270.0;;;20.2;73.3
67345;BME280;54230;52.402;6.276;2023-09-18T18:50:00;100260.0;;;20.2;72.8
67345;BME280;54230;52.402;6.276;2023-09-18T18:55:00;100250.0;;;20.4;72.4
67345;BME280;54230;52.402;6.276;2023-09-18T19:00:00;100260.0;;;20.3;72.5
67345;BME280;54230;52.402;6.276;2023-09-18T19:05:00;100260.0;;;20.5;71.8
67345;BME280;54230;52.402;6.276;2023-09-18T19:10:00;100270.0;;;20.3;71.7
67345;BME280;54230;52.402;6.276;2023-09-18T19:15:00;100280.0;;;20.4;71.8
67345;BME280;54230;52.402;6.276;2023-09-18T19:20:00;100280.0;;;20.2;72.0
67345;BME280;54230;52.402;6.276;2023-09-18T19:25:00;100290.0;;;20.2;71.9
67345;BME280;54230;52.402;6.276;2023-09-18T19:30:00;100290.0;;;20.2;72.1
67345;BME280;54230;52.402;6.276;2023-09-18T19:35:00;100290.0;;;20.1;72.4
67345;BME280;54230;52.402;6.276;2023-09-18T19:40:00;100280.0;;;20.1;72.4
67345;BME280;54230;52.402;6.276;2023-09-18T19:45:00;100300.0;;;20.2;72.2
67345;BME280;54230;52.402;6.276;2023-09-18T19:50:00;100310.0;;;20.2;72.1
67345;BME280;54230;52.402;6.276;2023-09-18T19:55:00;100310.0;;;20.2;72.1
67345;BME280;54230;52.402;6.276;2023-09-18T20:00:00;100310.0;;;20.1;72.2
67345;BME280;54230;52.402;6.276;2023-09-18T20:05:00;100330.0;;;20.3;71.9
67345;BME280;54230;52.402;6.276;2023-09-18T20:10:00;100330.0;;;20.5;71.0
67345;BME280;54230;52.402;6.276;2023-09-18T20:15:00;100340.0;;;20.5;70.5
67345;BME280;54230;52.402;6.276;2023-09-18T20:20:00;100340.0;;;20.2;70.8
67345;BME280;54230;52.402;6.276;2023-09-18T20:25:00;100350.0;;;20.0;71.7
67345;BME280;54230;52.402;6.276;2023-09-18T20:30:00;100360.0;;;19.9;72.3
67345;BME280;54230;52.402;6.276;2023-09-18T20:35:00;100370.0;;;19.8;72.5
67345;BME280;54230;52.402;6.276;2023-09-18T20:40:00;100380.0;;;19.8;72.5
67345;BME280;54230;52.402;6.276;2023-09-18T20:45:00;100370.0;;;19.8;73.3
67345;BME280;54230;52.402;6.276;2023-09-18T20:50:00;100380.0;;;19.6;73.5
67345;BME280;54230;52.402;6.276;2023-09-18T20:55:00;100390.0;;;19.6;73.4
67345;BME280;54230;52.402;6.276;2023-09-18T21:00:00;100400.0;;;19.5;73.6
67345;BME280;54230;52.402;6.276;2023-09-18T21:05:00;100390.0;;;19.4;73.8
67345;BME280;54230;52.402;6.276;2023-09-18T21:10:00;100400.0;;;19.4;74.1
67345;BME280;54230;52.402;6.276;2023-09-18T21:15:00;100410.0;;;19.5;73.8
67345;BME280;54230;52.402;6.276;2023-09-18T21:20:00;100420.0;;;19.5;73.4
67345;BME280;54230;52.402;6.276;2023-09-18T21:25:00;100420.0;;;19.4;73.2
67345;BME280;54230;52.402;6.276;2023-09-18T21:30:00;100420.0;;;19.4;72.6
67345;BME280;54230;52.402;6.276;2023-09-18T21:35:00;100430.0;;;19.3;72.4
67345;BME280;54230;52.402;6.276;2023-09-18T21:40:00;100430.0;;;19.3;72.2
67345;BME280;54230;52.402;6.276;2023-09-18T21:45:00;100430.0;;;19.4;71.3
67345;BME280;54230;52.402;6.276;2023-09-18T21:50:00;100440.0;;;19.2;71.1
67345;BME280;54230;52.402;6.276;2023-09-18T21:55:00;100450.0;;;19.2;70.7
67345;BME280;54230;52.402;6.276;2023-09-18T22:00:00;100450.0;;;19.2;70.7
67345;BME280;54230;52.402;6.276;2023-09-18T22:05:00;100470.0;;;19.0;71.0
67345;BME280;54230;52.402;6.276;2023-09-18T22:10:00;100470.0;;;18.8;71.4
67345;BME280;54230;52.402;6.276;2023-09-18T22:15:00;100470.0;;;18.6;71.7
67345;BME280;54230;52.402;6.276;2023-09-18T22:20:00;100460.0;;;18.5;72.1
67345;BME280;54230;52.402;6.276;2023-09-18T22:25:00;100470.0;;;18.5;72.4
67345;BME280;54230;52.402;6.276;2023-09-18T22:30:00;100480.0;;;18.7;72.3
67345;BME280;54230;52.402;6.276;2023-09-18T22:35:00;100490.0;;;18.7;72.0
67345;BME280;54230;52.402;6.276;2023-09-18T22:55:01;100540.0;;;18.8;72.9
67345;BME280;54230;52.402;6.276;2023-09-18T23:00:01;100550.0;;;18.6;74.2
67345;BME280;54230;52.402;6.276;2023-09-18T23:05:01;100560.0;;;18.4;75.4
67345;BME280;54230;52.402;6.276;2023-09-18T23:10:00;100570.0;;;18.3;76.2
67345;BME280;54230;52.402;6.276;2023-09-18T23:15:00;100570.0;;;18.3;76.4
67345;BME280;54230;52.402;6.276;2023-09-18T23:20:00;100570.0;;;18.2;76.6
67345;BME280;54230;52.402;6.276;2023-09-18T23:25:00;100570.0;;;18.3;76.8
67345;BME280;54230;52.402;6.276;2023-09-18T23:30:00;100580.0;;;18.3;76.6
67345;BME280;54230;52.402;6.276;2023-09-18T23:35:00;100590.0;;;18.2;76.5
67345;BME280;54230;52.402;6.276;2023-09-18T23:40:00;100600.0;;;18.0;76.4
67345;BME280;54230;52.402;6.276;2023-09-18T23:45:00;100600.0;;;17.8;76.6
67345;BME280;54230;52.402;6.276;2023-09-18T23:50:00;100600.0;;;17.6;76.9
67345;BME280;54230;52.402;6.276;2023-09-18T23:55:00;100610.0;;;17.5;76.9
